sensor_id;sensor_type;location;lat;lon;timestamp;temperature;humidity
18741;DHT22;9499;52.472;13.448;2022-10-26T00:00:30;11.50;99.90
18741;DHT22;9499;52.472;13.448;2022-10-26T00:02:57;11.50;99.90
18741;DHT22;9499;52.472;13.448;2022-10-26T00:05:24;11.40;99.90
18741;DHT22;9499;52.472;13.448;2022-10-26T00:07:50;11.40;99.90
18741;DHT22;9499;52.472;13.448;2022-10-26T00:10:17;11.40;99.90
18741;DHT22;9499;52.472;13.448;2022-10-26T00:12:47;11.40;99.90
18741;DHT22;9499;52.472;13.448;2022-10-26T00:15:16;11.30;99.90
18741;DHT22;9499;52.472;13.448;2022-10-26T00:17:43;11.30;99.90
18741;DHT22;9499;52.472;13.448;2022-10-26T00:20:10;11.30;99.90
18741;DHT22;9499;52.472;13.448;2022-10-26T00:22:37;11.30;99.90
18741;DHT22;9499;52.472;13.448;2022-10-26T00:25:04;11.30;99.90
18741;DHT22;9499;52.472;13.448;2022-10-26T00:27:31;11.30;99.90
18741;DHT22;9499;52.472;13.448;2022-10-26T00:29:58;11.30;99.90
18741;DHT22;9499;52.472;13.448;2022-10-26T00:32:26;11.30;99.90
18741;DHT22;9499;52.472;13.448;2022-10-26T00:34:53;11.30;99.90
18741;DHT22;9499;52.472;13.448;2022-10-26T00:37:19;11.30;99.90
18741;DHT22;9499;52.472;13.448;2022-10-26T00:39:46;11.30;99.90
18741;DHT22;9499;52.472;13.448;2022-10-26T00:42:16;11.30;99.90
18741;DHT22;9499;52.472;13.448;2022-10-26T00:44:57;11.30;99.90
18741;DHT22;9499;52.472;13.448;2022-10-26T00:47:33;11.30;99.90
18741;DHT22;9499;52.472;13.448;2022-10-26T00:50:04;11.30;99.90
18741;DHT22;9499;52.472;13.448;2022-10-26T00:52:32;11.30;99.90
18741;DHT22;9499;52.472;13.448;2022-10-26T00:54:59;11.30;99.90
18741;DHT22;9499;52.472;13.448;2022-10-26T00:57:26;11.30;99.90
18741;DHT22;9499;52.472;13.448;2022-10-26T00:59:54;11.30;99.90
18741;DHT22;9499;52.472;13.448;2022-10-26T01:02:21;11.30;99.90
18741;DHT22;9499;52.472;13.448;2022-10-26T01:04:49;11.30;99.90
18741;DHT22;9499;52.472;13.448;2022-10-26T01:07:16;11.10;99.90
18741;DHT22;9499;52.472;13.448;2022-10-26T01:09:42;11.10;99.90
18741;DHT22;9499;52.472;13.448;2022-10-26T01:12:09;11.00;99.90
18741;DHT22;9499;52.472;13.448;2022-10-26T01:14:35;11.10;99.90
18741;DHT22;9499;52.472;13.448;2022-10-26T01:17:09;11.10;99.90
18741;DHT22;9499;52.472;13.448;2022-10-26T01:20:02;11.00;99.90
18741;DHT22;9499;52.472;13.448;2022-10-26T01:22:36;11.00;99.90
18741;DHT22;9499;52.472;13.448;2022-10-26T01:25:15;11.00;99.90
18741;DHT22;9499;52.472;13.448;2022-10-26T01:27:46;11.00;99.90
18741;DHT22;9499;52.472;13.448;2022-10-26T01:30:24;10.90;99.90
18741;DHT22;9499;52.472;13.448;2022-10-26T01:33:14;10.90;99.90
18741;DHT22;9499;52.472;13.448;2022-10-26T01:35:50;10.90;99.90
18741;DHT22;9499;52.472;13.448;2022-10-26T01:38:23;10.80;99.90
18741;DHT22;9499;52.472;13.448;2022-10-26T01:40:55;10.80;99.90
18741;DHT22;9499;52.472;13.448;2022-10-26T01:43:24;10.80;99.90
18741;DHT22;9499;52.472;13.448;2022-10-26T01:45:54;10.70;99.90
18741;DHT22;9499;52.472;13.448;2022-10-26T01:48:23;10.70;99.90
18741;DHT22;9499;52.472;13.448;2022-10-26T01:50:52;10.70;99.90
18741;DHT22;9499;52.472;13.448;2022-10-26T01:53:19;10.70;99.90
18741;DHT22;9499;52.472;13.448;2022-10-26T01:55:48;10.70;99.90
18741;DHT22;9499;52.472;13.448;2022-10-26T02:01:37;10.70;99.90
18741;DHT22;9499;52.472;13.448;2022-10-26T02:04:14;10.70;99.90
18741;DHT22;9499;52.472;13.448;2022-10-26T02:06:47;10.60;99.90
18741;DHT22;9499;52.472;13.448;2022-10-26T02:09:24;10.50;99.90
18741;DHT22;9499;52.472;13.448;2022-10-26T02:11:54;10.50;99.90
18741;DHT22;9499;52.472;13.448;2022-10-26T02:14:27;10.60;99.90
18741;DHT22;9499;52.472;13.448;2022-10-26T02:17:01;10.50;99.90
18741;DHT22;9499;52.472;13.448;2022-10-26T02:19:34;10.50;99.90
18741;DHT22;9499;52.472;13.448;2022-10-26T02:22:08;10.50;99.90
18741;DHT22;9499;52.472;13.448;2022-10-26T02:24:38;10.50;99.90
18741;DHT22;9499;52.472;13.448;2022-10-26T02:27:08;10.50;99.90
18741;DHT22;9499;52.472;13.448;2022-10-26T02:29:38;10.50;99.90
18741;DHT22;9499;52.472;13.448;2022-10-26T02:32:07;10.50;99.90
18741;DHT22;9499;52.472;13.448;2022-10-26T02:34:36;10.40;99.90
18741;DHT22;9499;52.472;13.448;2022-10-26T02:37:04;10.40;99.90
18741;DHT22;9499;52.472;13.448;2022-10-26T02:39:33;10.30;99.90
18741;DHT22;9499;52.472;13.448;2022-10-26T02:42:01;10.30;99.90
18741;DHT22;9499;52.472;13.448;2022-10-26T02:44:30;10.30;99.90
18741;DHT22;9499;52.472;13.448;2022-10-26T02:46:58;10.30;99.90
18741;DHT22;9499;52.472;13.448;2022-10-26T02:49:26;10.30;99.90
18741;DHT22;9499;52.472;13.448;2022-10-26T02:52:00;10.30;99.90
18741;DHT22;9499;52.472;13.448;2022-10-26T02:54:32;10.30;99.90
18741;DHT22;9499;52.472;13.448;2022-10-26T02:57:04;10.20;99.90
18741;DHT22;9499;52.472;13.448;2022-10-26T02:59:35;10.20;99.90
18741;DHT22;9499;52.472;13.448;2022-10-26T03:02:02;10.20;99.90
18741;DHT22;9499;52.472;13.448;2022-10-26T03:04:32;10.20;99.90
18741;DHT22;9499;52.472;13.448;2022-10-26T03:06:59;10.30;99.90
18741;DHT22;9499;52.472;13.448;2022-10-26T03:09:26;10.20;99.90
18741;DHT22;9499;52.472;13.448;2022-10-26T03:11:53;10.30;99.90
18741;DHT22;9499;52.472;13.448;2022-10-26T03:14:20;10.30;99.90
18741;DHT22;9499;52.472;13.448;2022-10-26T03:16:46;10.20;99.90
18741;DHT22;9499;52.472;13.448;2022-10-26T03:19:13;10.20;99.90
18741;DHT22;9499;52.472;13.448;2022-10-26T03:21:41;10.20;99.90
18741;DHT22;9499;52.472;13.448;2022-10-26T03:24:07;10.20;99.90
18741;DHT22;9499;52.472;13.448;2022-10-26T03:26:34;10.20;99.90
18741;DHT22;9499;52.472;13.448;2022-10-26T03:29:01;10.20;99.90
18741;DHT22;9499;52.472;13.448;2022-10-26T03:31:27;10.20;99.90
18741;DHT22;9499;52.472;13.448;2022-10-26T03:33:54;10.20;99.90
18741;DHT22;9499;52.472;13.448;2022-10-26T03:36:20;10.20;99.90
18741;DHT22;9499;52.472;13.448;2022-10-26T03:38:48;10.20;99.90
18741;DHT22;9499;52.472;13.448;2022-10-26T03:41:15;10.20;99.90
18741;DHT22;9499;52.472;13.448;2022-10-26T03:43:41;10.20;99.90
18741;DHT22;9499;52.472;13.448;2022-10-26T03:46:08;10.20;99.90
18741;DHT22;9499;52.472;13.448;2022-10-26T03:48:34;10.20;99.90
18741;DHT22;9499;52.472;13.448;2022-10-26T03:51:01;10.20;99.90
18741;DHT22;9499;52.472;13.448;2022-10-26T03:53:27;10.20;99.90
18741;DHT22;9499;52.472;13.448;2022-10-26T03:55:55;10.20;99.90
18741;DHT22;9499;52.472;13.448;2022-10-26T03:58:21;10.10;99.90
18741;DHT22;9499;52.472;13.448;2022-10-26T04:00:48;10.10;99.90
18741;DHT22;9499;52.472;13.448;2022-10-26T04:03:15;10.10;99.90
18741;DHT22;9499;52.472;13.448;2022-10-26T04:05:41;10.10;99.90
18741;DHT22;9499;52.472;13.448;2022-10-26T04:08:08;10.10;99.90
18741;DHT22;9499;52.472;13.448;2022-10-26T04:10:36;10.10;99.90
18741;DHT22;9499;52.472;13.448;2022-10-26T04:13:04;10.10;99.90
18741;DHT22;9499;52.472;13.448;2022-10-26T04:15:30;10.10;99.90
18741;DHT22;9499;52.472;13.448;2022-10-26T04:17:58;10.10;99.90
18741;DHT22;9499;52.472;13.448;2022-10-26T04:20:26;10.00;99.90
18741;DHT22;9499;52.472;13.448;2022-10-26T04:22:57;10.00;99.90
18741;DHT22;9499;52.472;13.448;2022-10-26T04:25:23;10.00;99.90
18741;DHT22;9499;52.472;13.448;2022-10-26T04:27:50;10.00;99.90
18741;DHT22;9499;52.472;13.448;2022-10-26T04:30:18;10.00;99.90
18741;DHT22;9499;52.472;13.448;2022-10-26T04:32:44;10.00;99.90
18741;DHT22;9499;52.472;13.448;2022-10-26T04:35:11;9.90;99.90
18741;DHT22;9499;52.472;13.448;2022-10-26T04:37:37;9.90;99.90
18741;DHT22;9499;52.472;13.448;2022-10-26T04:40:05;9.90;99.90
18741;DHT22;9499;52.472;13.448;2022-10-26T04:42:39;9.90;99.90
18741;DHT22;9499;52.472;13.448;2022-10-26T04:45:06;9.90;99.90
18741;DHT22;9499;52.472;13.448;2022-10-26T04:47:34;9.80;99.90
18741;DHT22;9499;52.472;13.448;2022-10-26T04:50:01;9.80;99.90
18741;DHT22;9499;52.472;13.448;2022-10-26T04:52:27;9.70;99.90
18741;DHT22;9499;52.472;13.448;2022-10-26T04:54:54;9.70;99.90
18741;DHT22;9499;52.472;13.448;2022-10-26T04:57:20;9.70;99.90
18741;DHT22;9499;52.472;13.448;2022-10-26T04:59:47;9.70;99.90
18741;DHT22;9499;52.472;13.448;2022-10-26T05:02:13;9.70;99.90
18741;DHT22;9499;52.472;13.448;2022-10-26T05:04:41;9.70;99.90
18741;DHT22;9499;52.472;13.448;2022-10-26T05:07:08;9.70;99.90
18741;DHT22;9499;52.472;13.448;2022-10-26T05:09:34;9.60;99.90
18741;DHT22;9499;52.472;13.448;2022-10-26T05:12:01;9.70;99.90
18741;DHT22;9499;52.472;13.448;2022-10-26T05:14:27;9.60;99.90
18741;DHT22;9499;52.472;13.448;2022-10-26T05:16:53;9.60;99.90
18741;DHT22;9499;52.472;13.448;2022-10-26T05:19:20;9.60;99.90
18741;DHT22;9499;52.472;13.448;2022-10-26T05:21:50;9.60;99.90
18741;DHT22;9499;52.472;13.448;2022-10-26T05:24:17;9.60;99.90
18741;DHT22;9499;52.472;13.448;2022-10-26T05:26:44;9.50;99.90
18741;DHT22;9499;52.472;13.448;2022-10-26T05:29:10;9.50;99.90
18741;DHT22;9499;52.472;13.448;2022-10-26T05:31:37;9.60;99.90
18741;DHT22;9499;52.472;13.448;2022-10-26T05:34:03;9.50;99.90
18741;DHT22;9499;52.472;13.448;2022-10-26T05:36:30;9.50;99.90
18741;DHT22;9499;52.472;13.448;2022-10-26T05:38:58;9.50;99.90
18741;DHT22;9499;52.472;13.448;2022-10-26T05:41:25;9.50;99.90
18741;DHT22;9499;52.472;13.448;2022-10-26T05:43:51;9.50;99.90
18741;DHT22;9499;52.472;13.448;2022-10-26T05:46:18;9.40;99.90
18741;DHT22;9499;52.472;13.448;2022-10-26T05:48:44;9.40;99.90
18741;DHT22;9499;52.472;13.448;2022-10-26T05:51:11;9.30;99.90
18741;DHT22;9499;52.472;13.448;2022-10-26T05:53:40;9.30;99.90
18741;DHT22;9499;52.472;13.448;2022-10-26T05:56:15;9.30;99.90
18741;DHT22;9499;52.472;13.448;2022-10-26T05:58:44;9.30;99.90
18741;DHT22;9499;52.472;13.448;2022-10-26T06:01:15;9.20;99.90
18741;DHT22;9499;52.472;13.448;2022-10-26T06:03:56;9.20;99.90
18741;DHT22;9499;52.472;13.448;2022-10-26T06:06:33;9.20;99.90
18741;DHT22;9499;52.472;13.448;2022-10-26T06:09:02;9.20;99.90
18741;DHT22;9499;52.472;13.448;2022-10-26T06:11:31;9.10;99.90
18741;DHT22;9499;52.472;13.448;2022-10-26T06:13:57;9.10;99.90
18741;DHT22;9499;52.472;13.448;2022-10-26T06:16:32;9.20;99.90
18741;DHT22;9499;52.472;13.448;2022-10-26T06:19:12;9.20;99.90
18741;DHT22;9499;52.472;13.448;2022-10-26T06:21:50;9.20;99.90
18741;DHT22;9499;52.472;13.448;2022-10-26T06:24:25;9.20;99.90
18741;DHT22;9499;52.472;13.448;2022-10-26T06:26:59;9.20;99.90
18741;DHT22;9499;52.472;13.448;2022-10-26T06:29:37;9.20;99.90
18741;DHT22;9499;52.472;13.448;2022-10-26T06:32:08;9.20;99.90
18741;DHT22;9499;52.472;13.448;2022-10-26T06:34:35;9.20;99.90
18741;DHT22;9499;52.472;13.448;2022-10-26T06:37:03;9.20;99.90
18741;DHT22;9499;52.472;13.448;2022-10-26T06:39:34;9.20;99.90
18741;DHT22;9499;52.472;13.448;2022-10-26T06:42:03;9.30;99.90
18741;DHT22;9499;52.472;13.448;2022-10-26T06:44:30;9.30;99.90
18741;DHT22;9499;52.472;13.448;2022-10-26T06:47:03;9.40;99.90
18741;DHT22;9499;52.472;13.448;2022-10-26T06:49:34;9.40;99.90
18741;DHT22;9499;52.472;13.448;2022-10-26T06:52:09;9.40;99.90
18741;DHT22;9499;52.472;13.448;2022-10-26T06:54:46;9.40;99.90
18741;DHT22;9499;52.472;13.448;2022-10-26T06:57:16;9.40;99.90
18741;DHT22;9499;52.472;13.448;2022-10-26T06:59:45;9.40;99.90
18741;DHT22;9499;52.472;13.448;2022-10-26T07:02:13;9.50;99.90
18741;DHT22;9499;52.472;13.448;2022-10-26T07:04:40;9.50;99.90
18741;DHT22;9499;52.472;13.448;2022-10-26T07:07:08;9.50;99.90
18741;DHT22;9499;52.472;13.448;2022-10-26T07:09:34;9.50;99.90
18741;DHT22;9499;52.472;13.448;2022-10-26T07:12:01;9.50;99.90
18741;DHT22;9499;52.472;13.448;2022-10-26T07:14:29;9.60;99.90
18741;DHT22;9499;52.472;13.448;2022-10-26T07:16:55;9.60;99.90
18741;DHT22;9499;52.472;13.448;2022-10-26T07:19:22;9.60;99.90
18741;DHT22;9499;52.472;13.448;2022-10-26T07:21:48;9.60;99.90
18741;DHT22;9499;52.472;13.448;2022-10-26T07:24:15;9.70;99.90
18741;DHT22;9499;52.472;13.448;2022-10-26T07:26:41;9.70;99.90
18741;DHT22;9499;52.472;13.448;2022-10-26T07:29:08;9.80;99.90
18741;DHT22;9499;52.472;13.448;2022-10-26T07:31:36;9.80;99.90
18741;DHT22;9499;52.472;13.448;2022-10-26T07:34:02;9.70;99.90
18741;DHT22;9499;52.472;13.448;2022-10-26T07:36:29;9.80;99.90
18741;DHT22;9499;52.472;13.448;2022-10-26T07:38:55;9.90;99.90
18741;DHT22;9499;52.472;13.448;2022-10-26T07:41:22;9.90;99.90
18741;DHT22;9499;52.472;13.448;2022-10-26T07:43:48;10.00;99.90
18741;DHT22;9499;52.472;13.448;2022-10-26T07:46:15;10.10;99.90
18741;DHT22;9499;52.472;13.448;2022-10-26T07:48:43;10.20;99.90
18741;DHT22;9499;52.472;13.448;2022-10-26T07:51:09;10.30;99.90
18741;DHT22;9499;52.472;13.448;2022-10-26T07:53:36;10.30;99.90
18741;DHT22;9499;52.472;13.448;2022-10-26T07:56:02;10.40;99.90
18741;DHT22;9499;52.472;13.448;2022-10-26T07:58:29;10.40;99.90
18741;DHT22;9499;52.472;13.448;2022-10-26T08:00:56;10.50;99.90
18741;DHT22;9499;52.472;13.448;2022-10-26T08:03:22;10.50;99.90
18741;DHT22;9499;52.472;13.448;2022-10-26T08:05:50;10.50;99.90
18741;DHT22;9499;52.472;13.448;2022-10-26T08:08:20;10.60;99.90
18741;DHT22;9499;52.472;13.448;2022-10-26T08:10:47;10.70;99.90
18741;DHT22;9499;52.472;13.448;2022-10-26T08:13:13;10.80;99.90
18741;DHT22;9499;52.472;13.448;2022-10-26T08:15:40;10.80;99.90
18741;DHT22;9499;52.472;13.448;2022-10-26T08:18:07;10.90;99.90
18741;DHT22;9499;52.472;13.448;2022-10-26T08:20:33;10.90;99.90
18741;DHT22;9499;52.472;13.448;2022-10-26T08:23:01;10.90;99.90
18741;DHT22;9499;52.472;13.448;2022-10-26T08:25:31;11.00;99.90
18741;DHT22;9499;52.472;13.448;2022-10-26T08:27:59;11.10;99.90
18741;DHT22;9499;52.472;13.448;2022-10-26T08:30:26;11.10;99.90
18741;DHT22;9499;52.472;13.448;2022-10-26T08:32:57;11.30;99.90
18741;DHT22;9499;52.472;13.448;2022-10-26T08:35:24;11.30;99.90
18741;DHT22;9499;52.472;13.448;2022-10-26T08:37:51;11.40;99.90
18741;DHT22;9499;52.472;13.448;2022-10-26T08:40:21;11.40;99.90
18741;DHT22;9499;52.472;13.448;2022-10-26T08:42:51;11.40;99.90
18741;DHT22;9499;52.472;13.448;2022-10-26T08:45:24;11.50;99.90
18741;DHT22;9499;52.472;13.448;2022-10-26T08:47:54;11.60;99.90
18741;DHT22;9499;52.472;13.448;2022-10-26T08:50:25;11.80;99.90
18741;DHT22;9499;52.472;13.448;2022-10-26T08:52:55;11.90;99.90
18741;DHT22;9499;52.472;13.448;2022-10-26T08:55:33;12.00;99.90
18741;DHT22;9499;52.472;13.448;2022-10-26T08:58:07;12.10;99.90
18741;DHT22;9499;52.472;13.448;2022-10-26T09:00:38;12.20;99.90
18741;DHT22;9499;52.472;13.448;2022-10-26T09:03:11;12.30;99.90
18741;DHT22;9499;52.472;13.448;2022-10-26T09:05:45;12.30;99.90
18741;DHT22;9499;52.472;13.448;2022-10-26T09:08:17;12.40;99.90
18741;DHT22;9499;52.472;13.448;2022-10-26T09:10:54;12.50;99.90
18741;DHT22;9499;52.472;13.448;2022-10-26T09:13:31;12.60;99.90
18741;DHT22;9499;52.472;13.448;2022-10-26T09:16:02;12.70;99.90
18741;DHT22;9499;52.472;13.448;2022-10-26T09:18:39;12.70;99.90
18741;DHT22;9499;52.472;13.448;2022-10-26T09:21:18;12.80;99.90
18741;DHT22;9499;52.472;13.448;2022-10-26T09:23:54;12.90;99.90
18741;DHT22;9499;52.472;13.448;2022-10-26T09:26:32;13.10;99.90
18741;DHT22;9499;52.472;13.448;2022-10-26T09:29:05;13.30;99.90
18741;DHT22;9499;52.472;13.448;2022-10-26T09:31:38;13.40;99.90
18741;DHT22;9499;52.472;13.448;2022-10-26T09:34:06;13.40;99.90
18741;DHT22;9499;52.472;13.448;2022-10-26T09:36:34;13.60;99.90
18741;DHT22;9499;52.472;13.448;2022-10-26T09:39:07;14.00;99.90
18741;DHT22;9499;52.472;13.448;2022-10-26T09:41:39;14.20;99.90
18741;DHT22;9499;52.472;13.448;2022-10-26T09:44:11;14.50;99.90
18741;DHT22;9499;52.472;13.448;2022-10-26T09:46:51;14.90;99.90
18741;DHT22;9499;52.472;13.448;2022-10-26T09:49:20;15.20;99.90
18741;DHT22;9499;52.472;13.448;2022-10-26T09:51:50;15.50;99.90
18741;DHT22;9499;52.472;13.448;2022-10-26T09:54:18;15.80;99.90
18741;DHT22;9499;52.472;13.448;2022-10-26T09:56:50;15.90;99.90
18741;DHT22;9499;52.472;13.448;2022-10-26T09:59:19;16.20;99.90
18741;DHT22;9499;52.472;13.448;2022-10-26T10:01:46;16.50;99.90
18741;DHT22;9499;52.472;13.448;2022-10-26T10:04:18;16.60;99.90
18741;DHT22;9499;52.472;13.448;2022-10-26T10:06:47;16.60;99.90
18741;DHT22;9499;52.472;13.448;2022-10-26T10:09:16;16.50;99.90
18741;DHT22;9499;52.472;13.448;2022-10-26T10:11:45;16.60;99.90
18741;DHT22;9499;52.472;13.448;2022-10-26T10:14:21;16.70;99.90
18741;DHT22;9499;52.472;13.448;2022-10-26T10:16:50;17.00;99.90
18741;DHT22;9499;52.472;13.448;2022-10-26T10:19:22;17.20;99.90
18741;DHT22;9499;52.472;13.448;2022-10-26T10:21:51;17.40;99.90
18741;DHT22;9499;52.472;13.448;2022-10-26T10:24:27;17.50;99.90
18741;DHT22;9499;52.472;13.448;2022-10-26T10:26:59;17.80;99.90
18741;DHT22;9499;52.472;13.448;2022-10-26T10:29:29;17.90;99.90
18741;DHT22;9499;52.472;13.448;2022-10-26T10:31:56;17.90;99.90
18741;DHT22;9499;52.472;13.448;2022-10-26T10:34:23;18.00;99.90
18741;DHT22;9499;52.472;13.448;2022-10-26T10:36:50;17.90;99.90
18741;DHT22;9499;52.472;13.448;2022-10-26T10:39:37;18.00;99.90
18741;DHT22;9499;52.472;13.448;2022-10-26T10:42:14;18.10;99.90
18741;DHT22;9499;52.472;13.448;2022-10-26T10:44:45;18.10;99.90
18741;DHT22;9499;52.472;13.448;2022-10-26T10:47:20;18.20;99.90
18741;DHT22;9499;52.472;13.448;2022-10-26T10:49:55;18.00;99.90
18741;DHT22;9499;52.472;13.448;2022-10-26T10:52:28;18.10;99.90
18741;DHT22;9499;52.472;13.448;2022-10-26T10:55:05;18.30;99.90
18741;DHT22;9499;52.472;13.448;2022-10-26T10:57:40;18.40;99.90
18741;DHT22;9499;52.472;13.448;2022-10-26T11:00:12;18.50;99.90
18741;DHT22;9499;52.472;13.448;2022-10-26T11:06:12;18.80;99.90
18741;DHT22;9499;52.472;13.448;2022-10-26T11:08:45;18.90;99.90
18741;DHT22;9499;52.472;13.448;2022-10-26T11:11:17;18.90;99.90
18741;DHT22;9499;52.472;13.448;2022-10-26T11:13:51;19.00;99.90
18741;DHT22;9499;52.472;13.448;2022-10-26T11:16:21;19.30;99.90
18741;DHT22;9499;52.472;13.448;2022-10-26T11:18:53;19.30;99.90
18741;DHT22;9499;52.472;13.448;2022-10-26T11:21:26;19.20;99.90
18741;DHT22;9499;52.472;13.448;2022-10-26T11:24:01;19.30;99.90
18741;DHT22;9499;52.472;13.448;2022-10-26T11:26:39;19.40;99.90
18741;DHT22;9499;52.472;13.448;2022-10-26T11:29:15;19.60;99.90
18741;DHT22;9499;52.472;13.448;2022-10-26T11:31:47;19.70;99.90
18741;DHT22;9499;52.472;13.448;2022-10-26T11:34:20;19.70;99.90
18741;DHT22;9499;52.472;13.448;2022-10-26T11:36:54;19.50;99.90
18741;DHT22;9499;52.472;13.448;2022-10-26T11:39:30;19.60;99.90
18741;DHT22;9499;52.472;13.448;2022-10-26T11:42:02;19.70;99.90
18741;DHT22;9499;52.472;13.448;2022-10-26T11:44:34;19.90;99.90
18741;DHT22;9499;52.472;13.448;2022-10-26T11:47:11;20.00;99.90
18741;DHT22;9499;52.472;13.448;2022-10-26T11:49:42;20.30;99.90
18741;DHT22;9499;52.472;13.448;2022-10-26T11:52:13;20.60;99.90
18741;DHT22;9499;52.472;13.448;2022-10-26T11:54:45;20.40;99.90
18741;DHT22;9499;52.472;13.448;2022-10-26T11:57:14;20.40;99.90
18741;DHT22;9499;52.472;13.448;2022-10-26T11:59:44;20.50;99.90
18741;DHT22;9499;52.472;13.448;2022-10-26T12:02:15;20.50;99.90
18741;DHT22;9499;52.472;13.448;2022-10-26T12:04:46;20.60;99.90
18741;DHT22;9499;52.472;13.448;2022-10-26T12:07:19;20.70;99.90
18741;DHT22;9499;52.472;13.448;2022-10-26T12:09:46;20.90;99.90
18741;DHT22;9499;52.472;13.448;2022-10-26T12:12:18;21.20;99.90
18741;DHT22;9499;52.472;13.448;2022-10-26T12:14:51;21.30;99.90
18741;DHT22;9499;52.472;13.448;2022-10-26T12:17:25;21.30;99.90
18741;DHT22;9499;52.472;13.448;2022-10-26T12:19:57;21.30;99.90
18741;DHT22;9499;52.472;13.448;2022-10-26T12:22:30;21.40;99.90
18741;DHT22;9499;52.472;13.448;2022-10-26T12:25:07;21.50;99.90
18741;DHT22;9499;52.472;13.448;2022-10-26T12:27:50;21.40;99.90
18741;DHT22;9499;52.472;13.448;2022-10-26T12:30:26;21.50;99.90
18741;DHT22;9499;52.472;13.448;2022-10-26T12:32:56;21.40;99.90
18741;DHT22;9499;52.472;13.448;2022-10-26T12:35:37;21.40;99.90
18741;DHT22;9499;52.472;13.448;2022-10-26T12:41:24;21.60;99.90
18741;DHT22;9499;52.472;13.448;2022-10-26T12:43:55;21.60;99.90
18741;DHT22;9499;52.472;13.448;2022-10-26T12:46:40;21.70;99.90
18741;DHT22;9499;52.472;13.448;2022-10-26T12:52:20;22.00;99.90
18741;DHT22;9499;52.472;13.448;2022-10-26T12:57:43;21.90;99.90
18741;DHT22;9499;52.472;13.448;2022-10-26T13:00:16;21.90;99.90
18741;DHT22;9499;52.472;13.448;2022-10-26T13:02:53;21.80;99.90
18741;DHT22;9499;52.472;13.448;2022-10-26T13:05:32;21.70;99.90
18741;DHT22;9499;52.472;13.448;2022-10-26T13:08:04;21.40;99.90
18741;DHT22;9499;52.472;13.448;2022-10-26T13:10:33;21.40;99.90
18741;DHT22;9499;52.472;13.448;2022-10-26T13:13:01;21.50;99.90
18741;DHT22;9499;52.472;13.448;2022-10-26T13:15:32;21.70;99.90
18741;DHT22;9499;52.472;13.448;2022-10-26T13:18:06;21.80;99.90
18741;DHT22;9499;52.472;13.448;2022-10-26T13:20:36;21.90;99.90
18741;DHT22;9499;52.472;13.448;2022-10-26T13:23:14;22.00;99.90
18741;DHT22;9499;52.472;13.448;2022-10-26T13:25:41;21.80;99.90
18741;DHT22;9499;52.472;13.448;2022-10-26T13:28:33;21.70;99.90
18741;DHT22;9499;52.472;13.448;2022-10-26T13:31:23;21.70;99.90
18741;DHT22;9499;52.472;13.448;2022-10-26T13:33:58;21.60;99.90
18741;DHT22;9499;52.472;13.448;2022-10-26T13:36:30;21.40;99.90
18741;DHT22;9499;52.472;13.448;2022-10-26T13:39:03;21.20;99.90
18741;DHT22;9499;52.472;13.448;2022-10-26T13:41:33;21.00;99.90
18741;DHT22;9499;52.472;13.448;2022-10-26T13:44:04;20.90;99.90
18741;DHT22;9499;52.472;13.448;2022-10-26T13:46:35;20.70;99.90
18741;DHT22;9499;52.472;13.448;2022-10-26T13:49:10;20.50;99.90
18741;DHT22;9499;52.472;13.448;2022-10-26T13:51:42;20.40;99.90
18741;DHT22;9499;52.472;13.448;2022-10-26T13:54:18;20.30;99.90
18741;DHT22;9499;52.472;13.448;2022-10-26T13:56:58;20.30;99.90
18741;DHT22;9499;52.472;13.448;2022-10-26T13:59:27;20.30;99.90
18741;DHT22;9499;52.472;13.448;2022-10-26T14:02:07;20.20;99.90
18741;DHT22;9499;52.472;13.448;2022-10-26T14:04:39;20.30;99.90
18741;DHT22;9499;52.472;13.448;2022-10-26T14:07:12;20.20;99.90
18741;DHT22;9499;52.472;13.448;2022-10-26T14:09:42;20.20;99.90
18741;DHT22;9499;52.472;13.448;2022-10-26T14:12:10;20.20;99.90
18741;DHT22;9499;52.472;13.448;2022-10-26T14:14:38;20.10;99.90
18741;DHT22;9499;52.472;13.448;2022-10-26T14:17:05;20.00;99.90
18741;DHT22;9499;52.472;13.448;2022-10-26T14:19:35;19.90;99.90
18741;DHT22;9499;52.472;13.448;2022-10-26T14:22:03;19.70;99.90
18741;DHT22;9499;52.472;13.448;2022-10-26T14:24:32;19.70;99.90
18741;DHT22;9499;52.472;13.448;2022-10-26T14:27:00;19.50;99.90
18741;DHT22;9499;52.472;13.448;2022-10-26T14:29:30;19.40;99.90
18741;DHT22;9499;52.472;13.448;2022-10-26T14:31:57;19.30;99.90
18741;DHT22;9499;52.472;13.448;2022-10-26T14:34:24;19.20;99.90
18741;DHT22;9499;52.472;13.448;2022-10-26T14:36:52;19.20;99.90
18741;DHT22;9499;52.472;13.448;2022-10-26T14:39:29;19.10;99.90
18741;DHT22;9499;52.472;13.448;2022-10-26T14:41:57;19.00;99.90
18741;DHT22;9499;52.472;13.448;2022-10-26T14:44:26;19.00;99.90
18741;DHT22;9499;52.472;13.448;2022-10-26T14:46:54;18.90;99.90
18741;DHT22;9499;52.472;13.448;2022-10-26T14:49:22;18.90;99.90
18741;DHT22;9499;52.472;13.448;2022-10-26T14:51:55;18.80;99.90
18741;DHT22;9499;52.472;13.448;2022-10-26T14:54:23;18.70;99.90
18741;DHT22;9499;52.472;13.448;2022-10-26T14:56:50;18.70;99.90
18741;DHT22;9499;52.472;13.448;2022-10-26T14:59:21;18.60;99.90
18741;DHT22;9499;52.472;13.448;2022-10-26T15:01:52;18.60;99.90
18741;DHT22;9499;52.472;13.448;2022-10-26T15:04:28;18.60;99.90
18741;DHT22;9499;52.472;13.448;2022-10-26T15:07:05;18.50;99.90
18741;DHT22;9499;52.472;13.448;2022-10-26T15:09:38;18.50;99.90
18741;DHT22;9499;52.472;13.448;2022-10-26T15:12:06;18.50;99.90
18741;DHT22;9499;52.472;13.448;2022-10-26T15:14:43;18.50;99.90
18741;DHT22;9499;52.472;13.448;2022-10-26T15:17:19;18.50;99.90
18741;DHT22;9499;52.472;13.448;2022-10-26T15:19:46;18.50;99.90
18741;DHT22;9499;52.472;13.448;2022-10-26T15:22:19;18.40;99.90
18741;DHT22;9499;52.472;13.448;2022-10-26T15:24:49;18.40;99.90
18741;DHT22;9499;52.472;13.448;2022-10-26T15:27:17;18.30;99.90
18741;DHT22;9499;52.472;13.448;2022-10-26T15:29:45;18.30;99.90
18741;DHT22;9499;52.472;13.448;2022-10-26T15:32:26;18.20;99.90
18741;DHT22;9499;52.472;13.448;2022-10-26T15:35:24;18.20;99.90
18741;DHT22;9499;52.472;13.448;2022-10-26T15:37:53;18.10;99.90
18741;DHT22;9499;52.472;13.448;2022-10-26T15:40:20;18.10;99.90
18741;DHT22;9499;52.472;13.448;2022-10-26T15:42:49;18.00;99.90
18741;DHT22;9499;52.472;13.448;2022-10-26T15:45:19;18.00;99.90
18741;DHT22;9499;52.472;13.448;2022-10-26T15:47:48;17.90;99.90
18741;DHT22;9499;52.472;13.448;2022-10-26T15:50:17;17.90;99.90
18741;DHT22;9499;52.472;13.448;2022-10-26T15:52:44;17.80;99.90
18741;DHT22;9499;52.472;13.448;2022-10-26T15:55:11;17.80;99.90
18741;DHT22;9499;52.472;13.448;2022-10-26T15:57:38;17.70;99.90
18741;DHT22;9499;52.472;13.448;2022-10-26T16:00:06;17.60;99.90
18741;DHT22;9499;52.472;13.448;2022-10-26T16:02:33;17.60;99.90
18741;DHT22;9499;52.472;13.448;2022-10-26T16:05:03;17.50;99.90
18741;DHT22;9499;52.472;13.448;2022-10-26T16:07:31;17.50;99.90
18741;DHT22;9499;52.472;13.448;2022-10-26T16:09:58;17.50;99.90